Richville, Ohio
Current Conditions -  °F | °C
As of 12:51 PM on Thursday 27 Nov 2014 (Local Time) from KCAK Reporting Station
Light Snow Light Snow  
Wind Chill: 23°   Ceiling: 1300
Heat Index: 32°   Visibility: 3mi
Dew Point: 24°   Wind: 13mph
Humidity: 73%   Direction: 320°NW
Pressure: 30.11"   Gusts: 21mph
Location:  40.7516°N, 81.4187°W
Report Text: KCAK 271751Z 32011G18KT 3SM -SN BKN013 OVC024 00/M04 A3011 RMK AO2 SLP209 P0000 60004 T00001044 10006 21006 50009
Loading
Personal Weather Stations






























Interactive Weather Map New forecast layout! Learn more

10-Day Weather Forecast

Advertisements
Track Severe Weather on mobile